sensor_id;sensor_type;location;lat;lon;timestamp;temperature;humidity
31765;DHT22;18338;53.240;8.798;2023-04-08T00:01:38;6.20;99.90
31765;DHT22;18338;53.240;8.798;2023-04-08T00:04:05;6.20;99.90
31765;DHT22;18338;53.240;8.798;2023-04-08T00:06:35;6.20;99.90
31765;DHT22;18338;53.240;8.798;2023-04-08T00:09:02;6.20;99.90
31765;DHT22;18338;53.240;8.798;2023-04-08T00:11:29;6.20;99.90
31765;DHT22;18338;53.240;8.798;2023-04-08T00:13:56;6.20;99.90
31765;DHT22;18338;53.240;8.798;2023-04-08T00:16:23;6.20;99.90
31765;DHT22;18338;53.240;8.798;2023-04-08T00:18:50;6.20;99.90
31765;DHT22;18338;53.240;8.798;2023-04-08T00:21:17;6.20;99.90
31765;DHT22;18338;53.240;8.798;2023-04-08T00:23:46;6.20;99.90
31765;DHT22;18338;53.240;8.798;2023-04-08T00:26:13;6.20;99.90
31765;DHT22;18338;53.240;8.798;2023-04-08T00:28:40;6.20;99.90
31765;DHT22;18338;53.240;8.798;2023-04-08T00:31:08;6.20;99.90
31765;DHT22;18338;53.240;8.798;2023-04-08T00:33:35;6.20;99.90
31765;DHT22;18338;53.240;8.798;2023-04-08T00:36:02;6.20;99.90
31765;DHT22;18338;53.240;8.798;2023-04-08T00:38:29;6.20;99.90
31765;DHT22;18338;53.240;8.798;2023-04-08T00:40:56;6.20;99.90
31765;DHT22;18338;53.240;8.798;2023-04-08T00:43:24;6.20;99.90
31765;DHT22;18338;53.240;8.798;2023-04-08T00:45:50;6.20;99.90
31765;DHT22;18338;53.240;8.798;2023-04-08T00:48:18;6.20;99.90
31765;DHT22;18338;53.240;8.798;2023-04-08T00:50:44;6.20;99.90
31765;DHT22;18338;53.240;8.798;2023-04-08T00:53:16;6.20;99.90
31765;DHT22;18338;53.240;8.798;2023-04-08T00:55:43;6.20;99.90
31765;DHT22;18338;53.240;8.798;2023-04-08T00:58:11;6.20;99.90
31765;DHT22;18338;53.240;8.798;2023-04-08T01:00:42;6.20;99.90
31765;DHT22;18338;53.240;8.798;2023-04-08T01:03:34;6.20;99.90
31765;DHT22;18338;53.240;8.798;2023-04-08T01:06:24;6.20;99.90
31765;DHT22;18338;53.240;8.798;2023-04-08T01:08:54;6.20;99.90
31765;DHT22;18338;53.240;8.798;2023-04-08T01:11:23;6.20;99.90
31765;DHT22;18338;53.240;8.798;2023-04-08T01:13:53;6.20;99.90
31765;DHT22;18338;53.240;8.798;2023-04-08T01:16:22;6.20;99.90
31765;DHT22;18338;53.240;8.798;2023-04-08T01:18:52;6.20;99.90
31765;DHT22;18338;53.240;8.798;2023-04-08T01:21:21;6.20;99.90
31765;DHT22;18338;53.240;8.798;2023-04-08T01:24:00;6.20;99.90
31765;DHT22;18338;53.240;8.798;2023-04-08T01:26:27;6.20;99.90
31765;DHT22;18338;53.240;8.798;2023-04-08T01:28:57;6.20;99.90
31765;DHT22;18338;53.240;8.798;2023-04-08T01:31:25;6.20;99.90
31765;DHT22;18338;53.240;8.798;2023-04-08T01:33:53;6.20;99.90
31765;DHT22;18338;53.240;8.798;2023-04-08T01:36:22;6.20;99.90
31765;DHT22;18338;53.240;8.798;2023-04-08T01:38:49;6.10;99.90
31765;DHT22;18338;53.240;8.798;2023-04-08T01:41:17;6.20;99.90
31765;DHT22;18338;53.240;8.798;2023-04-08T01:43:45;6.20;99.90
31765;DHT22;18338;53.240;8.798;2023-04-08T01:46:13;6.20;99.90
31765;DHT22;18338;53.240;8.798;2023-04-08T01:48:40;6.20;99.90
31765;DHT22;18338;53.240;8.798;2023-04-08T01:51:08;6.20;99.90
31765;DHT22;18338;53.240;8.798;2023-04-08T01:53:35;6.20;99.90
31765;DHT22;18338;53.240;8.798;2023-04-08T01:56:10;6.20;99.90
31765;DHT22;18338;53.240;8.798;2023-04-08T01:58:40;6.20;99.90
31765;DHT22;18338;53.240;8.798;2023-04-08T02:01:12;6.20;99.90
31765;DHT22;18338;53.240;8.798;2023-04-08T02:03:42;6.20;99.90
31765;DHT22;18338;53.240;8.798;2023-04-08T02:06:10;6.20;99.90
31765;DHT22;18338;53.240;8.798;2023-04-08T02:08:37;6.20;99.90
31765;DHT22;18338;53.240;8.798;2023-04-08T02:11:03;6.20;99.90
31765;DHT22;18338;53.240;8.798;2023-04-08T02:13:30;6.20;99.90
31765;DHT22;18338;53.240;8.798;2023-04-08T02:16:29;6.20;99.90
31765;DHT22;18338;53.240;8.798;2023-04-08T02:19:07;6.20;99.90
31765;DHT22;18338;53.240;8.798;2023-04-08T02:21:43;6.20;99.90
31765;DHT22;18338;53.240;8.798;2023-04-08T02:24:13;6.20;99.90
31765;DHT22;18338;53.240;8.798;2023-04-08T02:26:42;6.30;99.90
31765;DHT22;18338;53.240;8.798;2023-04-08T02:29:14;6.30;99.90
31765;DHT22;18338;53.240;8.798;2023-04-08T02:31:42;6.30;99.90
31765;DHT22;18338;53.240;8.798;2023-04-08T02:34:10;6.20;99.90
31765;DHT22;18338;53.240;8.798;2023-04-08T02:36:37;6.30;99.90
31765;DHT22;18338;53.240;8.798;2023-04-08T02:39:06;6.30;99.90
31765;DHT22;18338;53.240;8.798;2023-04-08T02:41:33;6.30;99.90
31765;DHT22;18338;53.240;8.798;2023-04-08T02:44:00;6.30;99.90
31765;DHT22;18338;53.240;8.798;2023-04-08T02:46:27;6.30;99.90
31765;DHT22;18338;53.240;8.798;2023-04-08T02:48:53;6.20;99.90
31765;DHT22;18338;53.240;8.798;2023-04-08T02:51:20;6.20;99.90
31765;DHT22;18338;53.240;8.798;2023-04-08T02:53:47;6.20;99.90
31765;DHT22;18338;53.240;8.798;2023-04-08T02:56:13;6.20;99.90
31765;DHT22;18338;53.240;8.798;2023-04-08T02:58:40;6.20;99.90
31765;DHT22;18338;53.240;8.798;2023-04-08T03:01:08;6.20;99.90
31765;DHT22;18338;53.240;8.798;2023-04-08T03:03:35;6.20;99.90
31765;DHT22;18338;53.240;8.798;2023-04-08T03:06:02;6.20;99.90
31765;DHT22;18338;53.240;8.798;2023-04-08T03:08:29;6.20;99.90
31765;DHT22;18338;53.240;8.798;2023-04-08T03:10:56;6.20;99.90
31765;DHT22;18338;53.240;8.798;2023-04-08T03:13:23;6.20;99.90
31765;DHT22;18338;53.240;8.798;2023-04-08T03:15:49;6.20;99.90
31765;DHT22;18338;53.240;8.798;2023-04-08T03:18:16;6.20;99.90
31765;DHT22;18338;53.240;8.798;2023-04-08T03:20:43;6.20;99.90
31765;DHT22;18338;53.240;8.798;2023-04-08T03:23:10;6.20;99.90
31765;DHT22;18338;53.240;8.798;2023-04-08T03:25:36;6.20;99.90
31765;DHT22;18338;53.240;8.798;2023-04-08T03:28:03;6.30;99.90
31765;DHT22;18338;53.240;8.798;2023-04-08T03:30:30;6.30;99.90
31765;DHT22;18338;53.240;8.798;2023-04-08T03:32:58;6.30;99.90
31765;DHT22;18338;53.240;8.798;2023-04-08T03:35:25;6.30;99.90
31765;DHT22;18338;53.240;8.798;2023-04-08T03:37:51;6.30;99.90
31765;DHT22;18338;53.240;8.798;2023-04-08T03:40:19;6.30;99.90
31765;DHT22;18338;53.240;8.798;2023-04-08T03:42:46;6.30;99.90
31765;DHT22;18338;53.240;8.798;2023-04-08T03:45:13;6.30;99.90
31765;DHT22;18338;53.240;8.798;2023-04-08T03:47:40;6.30;99.90
31765;DHT22;18338;53.240;8.798;2023-04-08T03:50:08;6.30;99.90
31765;DHT22;18338;53.240;8.798;2023-04-08T03:52:34;6.30;99.90
31765;DHT22;18338;53.240;8.798;2023-04-08T03:55:01;6.30;99.90
31765;DHT22;18338;53.240;8.798;2023-04-08T03:57:28;6.30;99.90
31765;DHT22;18338;53.240;8.798;2023-04-08T03:59:55;6.30;99.90
31765;DHT22;18338;53.240;8.798;2023-04-08T04:02:22;6.30;99.90
31765;DHT22;18338;53.240;8.798;2023-04-08T04:04:49;6.30;99.90
31765;DHT22;18338;53.240;8.798;2023-04-08T04:07:15;6.30;99.90
31765;DHT22;18338;53.240;8.798;2023-04-08T04:09:42;6.30;99.90
31765;DHT22;18338;53.240;8.798;2023-04-08T04:12:09;6.30;99.90
31765;DHT22;18338;53.240;8.798;2023-04-08T04:14:36;6.30;99.90
31765;DHT22;18338;53.240;8.798;2023-04-08T04:17:02;6.30;99.90
31765;DHT22;18338;53.240;8.798;2023-04-08T04:19:30;6.30;99.90
31765;DHT22;18338;53.240;8.798;2023-04-08T04:21:57;6.20;99.90
31765;DHT22;18338;53.240;8.798;2023-04-08T04:24:24;6.30;99.90
31765;DHT22;18338;53.240;8.798;2023-04-08T04:26:50;6.30;99.90
31765;DHT22;18338;53.240;8.798;2023-04-08T04:29:17;6.30;99.90
31765;DHT22;18338;53.240;8.798;2023-04-08T04:31:44;6.40;99.90
31765;DHT22;18338;53.240;8.798;2023-04-08T04:34:12;6.40;99.90
31765;DHT22;18338;53.240;8.798;2023-04-08T04:36:38;6.40;99.90
31765;DHT22;18338;53.240;8.798;2023-04-08T04:39:05;6.40;99.90
31765;DHT22;18338;53.240;8.798;2023-04-08T04:41:32;6.40;99.90
31765;DHT22;18338;53.240;8.798;2023-04-08T04:44:00;6.40;99.90
31765;DHT22;18338;53.240;8.798;2023-04-08T04:46:27;6.40;99.90
31765;DHT22;18338;53.240;8.798;2023-04-08T04:48:54;6.40;99.90
31765;DHT22;18338;53.240;8.798;2023-04-08T04:51:21;6.50;99.90
31765;DHT22;18338;53.240;8.798;2023-04-08T04:53:47;6.50;99.90
31765;DHT22;18338;53.240;8.798;2023-04-08T04:56:15;6.50;99.90
31765;DHT22;18338;53.240;8.798;2023-04-08T04:58:42;6.50;99.90
31765;DHT22;18338;53.240;8.798;2023-04-08T05:01:08;6.60;99.90
31765;DHT22;18338;53.240;8.798;2023-04-08T05:03:36;6.50;99.90
31765;DHT22;18338;53.240;8.798;2023-04-08T05:06:02;6.60;99.90
31765;DHT22;18338;53.240;8.798;2023-04-08T05:08:29;6.60;99.90
31765;DHT22;18338;53.240;8.798;2023-04-08T05:10:56;6.50;99.90
31765;DHT22;18338;53.240;8.798;2023-04-08T05:13:25;6.50;99.90
31765;DHT22;18338;53.240;8.798;2023-04-08T05:15:52;6.50;99.90
31765;DHT22;18338;53.240;8.798;2023-04-08T05:18:19;6.60;99.90
31765;DHT22;18338;53.240;8.798;2023-04-08T05:20:46;6.60;99.90
31765;DHT22;18338;53.240;8.798;2023-04-08T05:23:12;6.70;99.90
31765;DHT22;18338;53.240;8.798;2023-04-08T05:25:39;6.60;99.90
31765;DHT22;18338;53.240;8.798;2023-04-08T05:28:06;6.60;99.90
31765;DHT22;18338;53.240;8.798;2023-04-08T05:30:33;6.70;99.90
31765;DHT22;18338;53.240;8.798;2023-04-08T05:32:59;6.60;99.90
31765;DHT22;18338;53.240;8.798;2023-04-08T05:35:27;6.60;99.90
31765;DHT22;18338;53.240;8.798;2023-04-08T05:37:54;6.70;99.90
31765;DHT22;18338;53.240;8.798;2023-04-08T05:40:21;6.70;99.90
31765;DHT22;18338;53.240;8.798;2023-04-08T05:42:48;6.70;99.90
31765;DHT22;18338;53.240;8.798;2023-04-08T05:45:15;6.70;99.90
31765;DHT22;18338;53.240;8.798;2023-04-08T05:47:42;6.80;99.90
31765;DHT22;18338;53.240;8.798;2023-04-08T05:50:09;6.80;99.90
31765;DHT22;18338;53.240;8.798;2023-04-08T05:52:40;6.80;99.90
31765;DHT22;18338;53.240;8.798;2023-04-08T05:55:08;6.80;99.90
31765;DHT22;18338;53.240;8.798;2023-04-08T05:57:35;6.80;99.90
31765;DHT22;18338;53.240;8.798;2023-04-08T06:00:04;6.90;99.90
31765;DHT22;18338;53.240;8.798;2023-04-08T06:02:30;6.90;99.90
31765;DHT22;18338;53.240;8.798;2023-04-08T06:04:57;6.90;99.90
31765;DHT22;18338;53.240;8.798;2023-04-08T06:07:24;6.90;99.90
31765;DHT22;18338;53.240;8.798;2023-04-08T06:09:51;6.90;99.90
31765;DHT22;18338;53.240;8.798;2023-04-08T06:12:18;7.00;99.90
31765;DHT22;18338;53.240;8.798;2023-04-08T06:14:44;7.10;99.90
31765;DHT22;18338;53.240;8.798;2023-04-08T06:17:11;7.20;99.90
31765;DHT22;18338;53.240;8.798;2023-04-08T06:19:38;7.30;99.90
31765;DHT22;18338;53.240;8.798;2023-04-08T06:22:04;7.30;99.90
31765;DHT22;18338;53.240;8.798;2023-04-08T06:24:31;7.40;99.90
31765;DHT22;18338;53.240;8.798;2023-04-08T06:26:58;7.60;99.90
31765;DHT22;18338;53.240;8.798;2023-04-08T06:29:25;7.70;99.90
31765;DHT22;18338;53.240;8.798;2023-04-08T06:31:54;7.70;99.90
31765;DHT22;18338;53.240;8.798;2023-04-08T06:34:21;7.70;99.90
31765;DHT22;18338;53.240;8.798;2023-04-08T06:36:47;7.70;99.90
31765;DHT22;18338;53.240;8.798;2023-04-08T06:39:15;7.70;99.90
31765;DHT22;18338;53.240;8.798;2023-04-08T06:41:42;7.60;99.90
31765;DHT22;18338;53.240;8.798;2023-04-08T06:44:09;7.50;99.90
31765;DHT22;18338;53.240;8.798;2023-04-08T06:46:36;7.50;99.90
31765;DHT22;18338;53.240;8.798;2023-04-08T06:49:02;7.50;99.90
31765;DHT22;18338;53.240;8.798;2023-04-08T06:51:30;7.50;99.90
31765;DHT22;18338;53.240;8.798;2023-04-08T06:53:57;7.60;99.90
31765;DHT22;18338;53.240;8.798;2023-04-08T06:56:24;7.70;99.90
31765;DHT22;18338;53.240;8.798;2023-04-08T06:58:52;7.90;99.90
31765;DHT22;18338;53.240;8.798;2023-04-08T07:01:19;8.10;99.90
31765;DHT22;18338;53.240;8.798;2023-04-08T07:03:46;8.20;99.90
31765;DHT22;18338;53.240;8.798;2023-04-08T07:06:12;8.20;99.90
31765;DHT22;18338;53.240;8.798;2023-04-08T07:08:41;8.20;99.90
31765;DHT22;18338;53.240;8.798;2023-04-08T07:11:08;8.20;99.90
31765;DHT22;18338;53.240;8.798;2023-04-08T07:13:35;8.30;99.90
31765;DHT22;18338;53.240;8.798;2023-04-08T07:16:01;8.20;99.90
31765;DHT22;18338;53.240;8.798;2023-04-08T07:18:28;8.20;99.90
31765;DHT22;18338;53.240;8.798;2023-04-08T07:20:55;8.30;99.90
31765;DHT22;18338;53.240;8.798;2023-04-08T07:23:23;8.30;99.90
31765;DHT22;18338;53.240;8.798;2023-04-08T07:25:50;8.30;99.90
31765;DHT22;18338;53.240;8.798;2023-04-08T07:28:17;8.40;99.90
31765;DHT22;18338;53.240;8.798;2023-04-08T07:30:43;8.50;99.90
31765;DHT22;18338;53.240;8.798;2023-04-08T07:33:11;8.30;99.90
31765;DHT22;18338;53.240;8.798;2023-04-08T07:35:37;8.30;99.90
31765;DHT22;18338;53.240;8.798;2023-04-08T07:38:04;8.40;99.90
31765;DHT22;18338;53.240;8.798;2023-04-08T07:40:36;8.30;99.90
31765;DHT22;18338;53.240;8.798;2023-04-08T07:43:03;8.20;99.90
31765;DHT22;18338;53.240;8.798;2023-04-08T07:45:30;8.00;99.90
31765;DHT22;18338;53.240;8.798;2023-04-08T07:47:57;7.90;99.90
31765;DHT22;18338;53.240;8.798;2023-04-08T07:50:24;7.90;99.90
31765;DHT22;18338;53.240;8.798;2023-04-08T07:52:51;8.00;99.90
31765;DHT22;18338;53.240;8.798;2023-04-08T07:55:18;8.10;99.90
31765;DHT22;18338;53.240;8.798;2023-04-08T07:57:46;8.20;99.90
31765;DHT22;18338;53.240;8.798;2023-04-08T08:00:13;8.20;99.90
31765;DHT22;18338;53.240;8.798;2023-04-08T08:02:46;8.20;99.90
31765;DHT22;18338;53.240;8.798;2023-04-08T08:05:14;8.30;99.90
31765;DHT22;18338;53.240;8.798;2023-04-08T08:07:41;8.40;99.90
31765;DHT22;18338;53.240;8.798;2023-04-08T08:10:08;8.50;99.90
31765;DHT22;18338;53.240;8.798;2023-04-08T08:12:36;8.50;99.90
31765;DHT22;18338;53.240;8.798;2023-04-08T08:15:03;8.70;99.90
31765;DHT22;18338;53.240;8.798;2023-04-08T08:17:30;8.70;99.90
31765;DHT22;18338;53.240;8.798;2023-04-08T08:19:59;8.80;99.90
31765;DHT22;18338;53.240;8.798;2023-04-08T08:22:26;8.90;99.90
31765;DHT22;18338;53.240;8.798;2023-04-08T08:24:56;9.00;99.90
31765;DHT22;18338;53.240;8.798;2023-04-08T08:27:23;8.90;99.90
31765;DHT22;18338;53.240;8.798;2023-04-08T08:29:51;8.80;99.90
31765;DHT22;18338;53.240;8.798;2023-04-08T08:32:18;8.80;99.90
31765;DHT22;18338;53.240;8.798;2023-04-08T08:34:44;8.90;99.90
31765;DHT22;18338;53.240;8.798;2023-04-08T08:37:11;9.20;99.90
31765;DHT22;18338;53.240;8.798;2023-04-08T08:39:38;9.40;99.90
31765;DHT22;18338;53.240;8.798;2023-04-08T08:42:04;9.70;99.90
31765;DHT22;18338;53.240;8.798;2023-04-08T08:44:31;9.80;99.90
31765;DHT22;18338;53.240;8.798;2023-04-08T08:46:59;10.00;99.90
31765;DHT22;18338;53.240;8.798;2023-04-08T08:49:26;10.00;99.90
31765;DHT22;18338;53.240;8.798;2023-04-08T08:51:54;10.00;99.90
31765;DHT22;18338;53.240;8.798;2023-04-08T08:54:20;10.20;99.90
31765;DHT22;18338;53.240;8.798;2023-04-08T08:56:47;10.20;99.90
31765;DHT22;18338;53.240;8.798;2023-04-08T08:59:14;10.10;99.90
31765;DHT22;18338;53.240;8.798;2023-04-08T09:01:41;10.20;99.90
31765;DHT22;18338;53.240;8.798;2023-04-08T09:06:40;10.30;99.90
31765;DHT22;18338;53.240;8.798;2023-04-08T09:09:07;10.30;99.90
31765;DHT22;18338;53.240;8.798;2023-04-08T09:11:41;10.20;99.90
31765;DHT22;18338;53.240;8.798;2023-04-08T09:14:23;10.30;99.90
31765;DHT22;18338;53.240;8.798;2023-04-08T09:16:51;10.10;99.90
31765;DHT22;18338;53.240;8.798;2023-04-08T09:19:18;10.10;99.90
31765;DHT22;18338;53.240;8.798;2023-04-08T09:22:06;10.10;99.90
31765;DHT22;18338;53.240;8.798;2023-04-08T09:24:34;10.40;99.90
31765;DHT22;18338;53.240;8.798;2023-04-08T09:27:03;10.50;99.90
31765;DHT22;18338;53.240;8.798;2023-04-08T09:29:31;10.40;99.90
31765;DHT22;18338;53.240;8.798;2023-04-08T09:32:02;10.30;99.90
31765;DHT22;18338;53.240;8.798;2023-04-08T09:34:31;10.40;99.90
31765;DHT22;18338;53.240;8.798;2023-04-08T09:37:00;10.30;99.90
31765;DHT22;18338;53.240;8.798;2023-04-08T09:39:27;10.50;99.90
31765;DHT22;18338;53.240;8.798;2023-04-08T09:41:57;10.70;99.90
31765;DHT22;18338;53.240;8.798;2023-04-08T09:44:28;10.90;99.90
31765;DHT22;18338;53.240;8.798;2023-04-08T09:50:02;10.70;99.90
31765;DHT22;18338;53.240;8.798;2023-04-08T09:52:41;10.60;99.90
31765;DHT22;18338;53.240;8.798;2023-04-08T09:55:11;10.90;99.90
31765;DHT22;18338;53.240;8.798;2023-04-08T09:57:42;11.10;99.90
31765;DHT22;18338;53.240;8.798;2023-04-08T10:00:14;11.20;99.90
31765;DHT22;18338;53.240;8.798;2023-04-08T10:03:10;11.30;99.90
31765;DHT22;18338;53.240;8.798;2023-04-08T10:05:42;11.20;99.90
31765;DHT22;18338;53.240;8.798;2023-04-08T10:08:09;11.10;99.90
31765;DHT22;18338;53.240;8.798;2023-04-08T10:10:40;11.20;99.90
31765;DHT22;18338;53.240;8.798;2023-04-08T10:13:08;11.00;99.90
31765;DHT22;18338;53.240;8.798;2023-04-08T10:15:35;11.00;99.90
31765;DHT22;18338;53.240;8.798;2023-04-08T10:23:02;11.10;99.90
31765;DHT22;18338;53.240;8.798;2023-04-08T10:25:37;11.20;99.90
31765;DHT22;18338;53.240;8.798;2023-04-08T10:33:11;11.00;99.90
31765;DHT22;18338;53.240;8.798;2023-04-08T10:35:46;11.00;99.90
31765;DHT22;18338;53.240;8.798;2023-04-08T10:38:15;11.10;99.90
31765;DHT22;18338;53.240;8.798;2023-04-08T10:40:42;11.10;99.90
31765;DHT22;18338;53.240;8.798;2023-04-08T10:43:11;11.10;99.90
31765;DHT22;18338;53.240;8.798;2023-04-08T10:45:39;11.20;99.90
31765;DHT22;18338;53.240;8.798;2023-04-08T10:48:16;11.10;99.90
31765;DHT22;18338;53.240;8.798;2023-04-08T10:53:28;10.80;99.90
31765;DHT22;18338;53.240;8.798;2023-04-08T10:56:12;10.80;99.90
31765;DHT22;18338;53.240;8.798;2023-04-08T10:58:54;11.20;99.90
31765;DHT22;18338;53.240;8.798;2023-04-08T11:01:24;11.40;99.90
31765;DHT22;18338;53.240;8.798;2023-04-08T11:03:52;11.50;99.90
31765;DHT22;18338;53.240;8.798;2023-04-08T11:06:19;11.60;99.90
31765;DHT22;18338;53.240;8.798;2023-04-08T11:08:46;11.50;99.90
31765;DHT22;18338;53.240;8.798;2023-04-08T11:11:13;11.70;99.90
31765;DHT22;18338;53.240;8.798;2023-04-08T11:13:42;11.80;99.90
31765;DHT22;18338;53.240;8.798;2023-04-08T11:16:20;11.70;99.90
31765;DHT22;18338;53.240;8.798;2023-04-08T11:18:49;12.00;99.90
31765;DHT22;18338;53.240;8.798;2023-04-08T11:21:16;12.20;99.90
31765;DHT22;18338;53.240;8.798;2023-04-08T11:23:43;12.50;99.90
31765;DHT22;18338;53.240;8.798;2023-04-08T11:26:10;12.50;99.90
31765;DHT22;18338;53.240;8.798;2023-04-08T11:28:38;12.60;99.90
31765;DHT22;18338;53.240;8.798;2023-04-08T11:31:06;12.30;99.90
31765;DHT22;18338;53.240;8.798;2023-04-08T11:33:34;12.40;99.90
31765;DHT22;18338;53.240;8.798;2023-04-08T11:36:02;12.40;99.90
31765;DHT22;18338;53.240;8.798;2023-04-08T11:38:38;12.20;99.90
31765;DHT22;18338;53.240;8.798;2023-04-08T11:41:06;12.40;99.90
31765;DHT22;18338;53.240;8.798;2023-04-08T11:43:33;12.70;99.90
31765;DHT22;18338;53.240;8.798;2023-04-08T11:46:11;12.80;99.90
31765;DHT22;18338;53.240;8.798;2023-04-08T11:48:38;12.90;99.90
31765;DHT22;18338;53.240;8.798;2023-04-08T11:51:06;13.10;99.90
31765;DHT22;18338;53.240;8.798;2023-04-08T11:53:35;13.20;99.90
31765;DHT22;18338;53.240;8.798;2023-04-08T11:56:21;13.60;99.90
31765;DHT22;18338;53.240;8.798;2023-04-08T11:58:51;13.70;99.90
31765;DHT22;18338;53.240;8.798;2023-04-08T12:01:18;13.50;99.90
31765;DHT22;18338;53.240;8.798;2023-04-08T12:03:57;13.50;99.90
31765;DHT22;18338;53.240;8.798;2023-04-08T12:06:24;13.70;99.90
31765;DHT22;18338;53.240;8.798;2023-04-08T12:08:54;13.80;99.90
31765;DHT22;18338;53.240;8.798;2023-04-08T12:11:21;14.00;99.90
31765;DHT22;18338;53.240;8.798;2023-04-08T12:13:48;13.80;99.90
31765;DHT22;18338;53.240;8.798;2023-04-08T12:16:16;14.10;99.90
31765;DHT22;18338;53.240;8.798;2023-04-08T12:18:44;14.10;99.90
31765;DHT22;18338;53.240;8.798;2023-04-08T12:21:11;14.20;99.90
31765;DHT22;18338;53.240;8.798;2023-04-08T12:23:38;14.00;99.90
31765;DHT22;18338;53.240;8.798;2023-04-08T12:26:05;13.90;99.90
31765;DHT22;18338;53.240;8.798;2023-04-08T12:28:31;13.80;99.90
31765;DHT22;18338;53.240;8.798;2023-04-08T12:31:00;13.70;99.90
31765;DHT22;18338;53.240;8.798;2023-04-08T12:33:27;13.50;99.90
31765;DHT22;18338;53.240;8.798;2023-04-08T12:35:54;13.50;99.90
31765;DHT22;18338;53.240;8.798;2023-04-08T12:38:21;13.40;99.90
31765;DHT22;18338;53.240;8.798;2023-04-08T12:40:48;13.40;99.90
31765;DHT22;18338;53.240;8.798;2023-04-08T12:43:16;13.60;99.90
31765;DHT22;18338;53.240;8.798;2023-04-08T12:45:43;13.30;99.90
31765;DHT22;18338;53.240;8.798;2023-04-08T12:48:09;13.10;99.90
31765;DHT22;18338;53.240;8.798;2023-04-08T12:50:36;12.90;99.90
31765;DHT22;18338;53.240;8.798;2023-04-08T12:53:03;12.80;99.90
31765;DHT22;18338;53.240;8.798;2023-04-08T12:55:30;12.90;99.90
31765;DHT22;18338;53.240;8.798;2023-04-08T12:57:57;12.90;99.90
31765;DHT22;18338;53.240;8.798;2023-04-08T13:00:24;12.80;99.90
31765;DHT22;18338;53.240;8.798;2023-04-08T13:02:51;12.60;99.90
31765;DHT22;18338;53.240;8.798;2023-04-08T13:05:18;12.60;99.90
31765;DHT22;18338;53.240;8.798;2023-04-08T13:07:58;12.80;99.90
31765;DHT22;18338;53.240;8.798;2023-04-08T13:10:25;13.10;99.90
31765;DHT22;18338;53.240;8.798;2023-04-08T13:12:52;13.30;99.90
31765;DHT22;18338;53.240;8.798;2023-04-08T13:15:20;13.50;99.90
31765;DHT22;18338;53.240;8.798;2023-04-08T13:17:47;13.60;99.90
31765;DHT22;18338;53.240;8.798;2023-04-08T13:20:14;13.70;99.90
31765;DHT22;18338;53.240;8.798;2023-04-08T13:22:42;13.80;99.90
31765;DHT22;18338;53.240;8.798;2023-04-08T13:25:09;13.90;99.90
31765;DHT22;18338;53.240;8.798;2023-04-08T13:27:36;13.90;99.90
31765;DHT22;18338;53.240;8.798;2023-04-08T13:30:03;13.60;99.90
31765;DHT22;18338;53.240;8.798;2023-04-08T13:32:30;13.70;99.90
31765;DHT22;18338;53.240;8.798;2023-04-08T13:34:57;13.70;99.90
31765;DHT22;18338;53.240;8.798;2023-04-08T13:37:23;13.70;99.90
31765;DHT22;18338;53.240;8.798;2023-04-08T13:39:50;13.70;99.90
31765;DHT22;18338;53.240;8.798;2023-04-08T13:42:17;13.60;99.90
31765;DHT22;18338;53.240;8.798;2023-04-08T13:44:44;13.60;99.90
31765;DHT22;18338;53.240;8.798;2023-04-08T13:47:11;13.60;99.90
31765;DHT22;18338;53.240;8.798;2023-04-08T13:49:38;13.70;99.90
31765;DHT22;18338;53.240;8.798;2023-04-08T13:52:05;13.70;99.90
31765;DHT22;18338;53.240;8.798;2023-04-08T13:54:34;13.70;99.90
31765;DHT22;18338;53.240;8.798;2023-04-08T13:57:01;13.60;99.90
31765;DHT22;18338;53.240;8.798;2023-04-08T13:59:28;13.60;99.90
31765;DHT22;18338;53.240;8.798;2023-04-08T14:01:55;13.80;99.90
31765;DHT22;18338;53.240;8.798;2023-04-08T14:04:22;13.80;99.90
31765;DHT22;18338;53.240;8.798;2023-04-08T14:06:49;14.00;99.90
31765;DHT22;18338;53.240;8.798;2023-04-08T14:09:17;14.20;99.90
31765;DHT22;18338;53.240;8.798;2023-04-08T14:11:44;14.10;99.90
31765;DHT22;18338;53.240;8.798;2023-04-08T14:14:11;13.90;99.90
31765;DHT22;18338;53.240;8.798;2023-04-08T14:16:38;13.90;99.90
31765;DHT22;18338;53.240;8.798;2023-04-08T14:19:04;13.80;99.90
31765;DHT22;18338;53.240;8.798;2023-04-08T14:21:31;13.80;99.90
31765;DHT22;18338;53.240;8.798;2023-04-08T14:23:58;14.00;99.90
31765;DHT22;18338;53.240;8.798;2023-04-08T14:26:28;13.90;99.90
31765;DHT22;18338;53.240;8.798;2023-04-08T14:28:54;13.60;99.90
31765;DHT22;18338;53.240;8.798;2023-04-08T14:31:22;13.40;99.90
31765;DHT22;18338;53.240;8.798;2023-04-08T14:33:49;13.40;99.90
31765;DHT22;18338;53.240;8.798;2023-04-08T14:36:16;13.20;99.90
31765;DHT22;18338;53.240;8.798;2023-04-08T14:38:43;13.20;99.90
31765;DHT22;18338;53.240;8.798;2023-04-08T14:41:10;13.00;99.90
31765;DHT22;18338;53.240;8.798;2023-04-08T14:43:37;12.90;99.90
31765;DHT22;18338;53.240;8.798;2023-04-08T14:46:04;12.80;99.90
31765;DHT22;18338;53.240;8.798;2023-04-08T14:48:31;12.60;99.90
31765;DHT22;18338;53.240;8.798;2023-04-08T14:51:01;12.40;99.90
31765;DHT22;18338;53.240;8.798;2023-04-08T14:53:28;12.10;99.90
31765;DHT22;18338;53.240;8.798;2023-04-08T14:55:55;12.10;99.90
31765;DHT22;18338;53.240;8.798;2023-04-08T14:58:22;12.10;99.90
31765;DHT22;18338;53.240;8.798;2023-04-08T15:00:49;12.00;99.90
31765;DHT22;18338;53.240;8.798;2023-04-08T15:03:17;12.10;99.90
31765;DHT22;18338;53.240;8.798;2023-04-08T15:05:44;12.10;99.90
31765;DHT22;18338;53.240;8.798;2023-04-08T15:08:11;12.30;99.90
31765;DHT22;18338;53.240;8.798;2023-04-08T15:10:48;12.40;99.90
31765;DHT22;18338;53.240;8.798;2023-04-08T15:13:15;12.50;99.90
31765;DHT22;18338;53.240;8.798;2023-04-08T15:15:42;12.50;99.90
31765;DHT22;18338;53.240;8.798;2023-04-08T15:18:09;12.60;99.90
31765;DHT22;18338;53.240;8.798;2023-04-08T15:20:36;12.70;99.90
31765;DHT22;18338;53.240;8.798;2023-04-08T15:23:03;12.70;99.90
31765;DHT22;18338;53.240;8.798;2023-04-08T15:25:30;12.60;99.90
31765;DHT22;18338;53.240;8.798;2023-04-08T15:27:58;12.40;99.90
31765;DHT22;18338;53.240;8.798;2023-04-08T15:30:25;12.40;99.90
31765;DHT22;18338;53.240;8.798;2023-04-08T15:32:53;12.30;99.90
31765;DHT22;18338;53.240;8.798;2023-04-08T15:35:23;12.20;99.90
31765;DHT22;18338;53.240;8.798;2023-04-08T15:37:49;12.10;99.90
31765;DHT22;18338;53.240;8.798;2023-04-08T15:40:16;12.00;99.90
31765;DHT22;18338;53.240;8.798;2023-04-08T15:42:43;12.00;99.90
31765;DHT22;18338;53.240;8.798;2023-04-08T15:45:10;12.10;99.90
31765;DHT22;18338;53.240;8.798;2023-04-08T15:47:37;12.00;99.90
31765;DHT22;18338;53.240;8.798;2023-04-08T15:50:04;12.10;99.90
31765;DHT22;18338;53.240;8.798;2023-04-08T15:52:31;12.20;99.90
31765;DHT22;18338;53.240;8.798;2023-04-08T15:55:00;12.10;99.90
31765;DHT22;18338;53.240;8.798;2023-04-08T15:57:28;12.00;99.90
31765;DHT22;18338;53.240;8.798;2023-04-08T15:59:56;11.90;99.90
31765;DHT22;18338;53.240;8.798;2023-04-08T16:02:23;11.70;99.90
31765;DHT22;18338;53.240;8.798;2023-04-08T16:04:52;11.70;99.90